createdAt,value
2023-03-31T00:08:21.725Z,8.10
2023-03-31T00:18:26.950Z,7.98
2023-03-31T00:28:29.582Z,7.89
2023-03-31T00:38:33.388Z,8.12
2023-03-31T00:48:38.346Z,7.97
2023-03-31T00:58:43.965Z,7.65
2023-03-31T01:08:50.136Z,7.44
2023-03-31T01:18:52.700Z,7.22
2023-03-31T01:29:18.964Z,7.38
2023-03-31T01:39:40.552Z,7.14
2023-03-31T01:49:54.387Z,7.05
2023-03-31T02:00:03.285Z,7.47
2023-03-31T02:10:17.167Z,7.69
2023-03-31T02:20:22.129Z,7.58
2023-03-31T02:30:34.253Z,7.47
2023-03-31T02:40:37.237Z,7.09
2023-03-31T02:51:10.198Z,7.07
2023-03-31T03:01:37.112Z,6.98
2023-03-31T03:12:10.927Z,6.81
2023-03-31T03:22:13.409Z,6.54
2023-03-31T03:32:16.093Z,6.61
2023-03-31T03:42:18.544Z,6.58
2023-03-31T03:52:21.572Z,6.70
2023-03-31T04:02:26.210Z,6.77
2023-03-31T04:12:30.418Z,6.40
2023-03-31T04:22:35.403Z,6.55
2023-03-31T04:32:37.930Z,6.62
2023-03-31T04:42:40.590Z,6.57
2023-03-31T04:52:43.840Z,6.63
2023-03-31T05:02:47.733Z,6.54
2023-03-31T05:12:51.718Z,6.92
2023-03-31T05:22:58.532Z,7.54
2023-03-31T05:33:01.453Z,8.61
2023-03-31T05:43:05.238Z,9.27
2023-03-31T05:53:08.722Z,9.34
2023-03-31T06:03:11.715Z,9.58
2023-03-31T06:13:14.646Z,9.73
2023-03-31T06:23:17.801Z,10.56
2023-03-31T06:33:20.448Z,10.16
2023-03-31T06:43:26.118Z,11.23
2023-03-31T06:53:30.740Z,11.89
2023-03-31T07:03:39.745Z,12.42
2023-03-31T07:13:42.650Z,12.78
2023-03-31T07:23:45.480Z,13.65
2023-03-31T07:33:48.738Z,13.98
2023-03-31T07:43:51.484Z,13.22
2023-03-31T07:53:55.040Z,13.17
2023-03-31T08:04:05.766Z,13.39
2023-03-31T08:14:09.614Z,13.53
2023-03-31T08:24:12.213Z,14.06
2023-03-31T08:34:16.094Z,14.59
2023-03-31T08:44:42.262Z,14.80
2023-03-31T08:54:51.763Z,15.09
2023-03-31T09:05:11.454Z,15.74
2023-03-31T09:15:27.534Z,16.11
2023-03-31T09:36:22.713Z,16.45
2023-03-31T09:46:36.952Z,17.04
2023-03-31T09:56:42.450Z,17.13
2023-03-31T10:06:46.026Z,17.76
2023-03-31T10:16:55.936Z,17.66
2023-03-31T10:26:58.750Z,18.13
2023-03-31T10:37:06.612Z,19.01
2023-03-31T10:47:15.581Z,19.11
2023-03-31T10:57:23.892Z,19.57
2023-03-31T11:07:38.476Z,19.23
2023-03-31T11:17:59.941Z,19.80
2023-03-31T11:28:03.513Z,18.83
2023-03-31T11:38:16.090Z,17.31
2023-03-31T11:48:43.997Z,16.81
2023-03-31T11:58:53.042Z,16.44
2023-03-31T12:09:19.746Z,16.66
2023-03-31T12:19:28.781Z,16.66
2023-03-31T12:29:37.128Z,16.99
2023-03-31T12:40:22.928Z,17.00
2023-03-31T12:50:47.589Z,17.39
2023-03-31T13:01:17.133Z,17.37
2023-03-31T13:11:48.113Z,18.98
2023-03-31T13:22:33.262Z,18.76
2023-03-31T13:32:37.301Z,18.52
2023-03-31T13:43:03.166Z,20.58
2023-03-31T13:53:25.676Z,19.25
2023-03-31T14:03:53.780Z,19.76
2023-03-31T14:14:15.627Z,17.67
2023-03-31T14:24:41.791Z,18.43
2023-03-31T14:34:54.218Z,17.84
2023-03-31T14:45:01.737Z,15.99
2023-03-31T14:55:06.028Z,15.45
2023-03-31T15:05:25.552Z,14.93
2023-03-31T15:15:28.171Z,14.90
2023-03-31T15:25:41.956Z,14.96
2023-03-31T15:35:44.756Z,14.72
2023-03-31T15:46:01.507Z,14.30
2023-03-31T15:56:05.495Z,13.92
2023-03-31T16:06:53.487Z,13.79
2023-03-31T16:17:02.208Z,13.26
2023-03-31T16:27:07.927Z,13.40
2023-03-31T16:37:11.683Z,12.99
2023-03-31T16:47:20.613Z,12.75
2023-03-31T16:57:34.569Z,12.89
2023-03-31T17:07:37.315Z,12.56
2023-03-31T17:17:40.349Z,12.26
2023-03-31T17:27:43.605Z,11.90
2023-03-31T17:37:50.567Z,10.66
2023-03-31T17:47:53.366Z,9.71
2023-03-31T17:57:56.528Z,9.20
2023-03-31T18:07:59.372Z,9.21
2023-03-31T18:18:02.272Z,9.34
2023-03-31T18:28:05.155Z,9.07
2023-03-31T18:38:07.860Z,8.91
2023-03-31T18:48:12.076Z,8.92
2023-03-31T18:58:15.005Z,8.65
2023-03-31T19:08:17.787Z,8.96
2023-03-31T19:18:21.306Z,8.95
2023-03-31T19:28:26.526Z,8.90
2023-03-31T19:38:32.452Z,8.79
2023-03-31T19:48:35.488Z,8.66
2023-03-31T19:58:38.924Z,8.45
2023-03-31T20:08:42.807Z,8.41
2023-03-31T20:18:51.555Z,8.44
2023-03-31T20:28:56.044Z,8.34
2023-03-31T20:39:00.342Z,8.23
2023-03-31T20:49:03.597Z,8.22
2023-03-31T20:59:09.831Z,8.16
2023-03-31T21:09:14.831Z,8.23
2023-03-31T21:19:17.684Z,8.26
2023-03-31T21:29:20.504Z,8.20
2023-03-31T21:39:23.088Z,7.96
2023-03-31T21:49:25.813Z,7.82
2023-03-31T21:59:28.335Z,7.94
2023-03-31T22:09:31.008Z,7.93
2023-03-31T22:19:34.300Z,7.88
2023-03-31T22:29:37.020Z,7.78
2023-03-31T22:39:39.578Z,7.59
2023-03-31T22:49:42.117Z,7.48
2023-03-31T22:59:44.668Z,7.57
2023-03-31T23:09:47.203Z,7.79
2023-03-31T23:19:49.916Z,7.76
2023-03-31T23:29:52.472Z,7.78
2023-03-31T23:39:54.907Z,7.83
2023-03-31T23:49:57.366Z,7.68
2023-03-31T23:59:59.814Z,7.73
